sensor_id;sensor_type;location;lat;lon;timestamp;P1;durP1;ratioP1;P2;durP2;ratioP2
37221;SDS011;23119;51.842;-2.230;2023-02-15T00:00:32;17.42;;;9.35;;
37221;SDS011;23119;51.842;-2.230;2023-02-15T00:03:00;19.38;;;8.73;;
37221;SDS011;23119;51.842;-2.230;2023-02-15T00:05:26;17.15;;;9.18;;
37221;SDS011;23119;51.842;-2.230;2023-02-15T00:07:54;17.90;;;8.80;;
37221;SDS011;23119;51.842;-2.230;2023-02-15T00:10:19;19.98;;;9.38;;
37221;SDS011;23119;51.842;-2.230;2023-02-15T00:12:48;16.67;;;9.07;;
37221;SDS011;23119;51.842;-2.230;2023-02-15T00:15:13;16.73;;;8.27;;
37221;SDS011;23119;51.842;-2.230;2023-02-15T00:17:39;17.55;;;9.00;;
37221;SDS011;23119;51.842;-2.230;2023-02-15T00:20:05;17.67;;;9.52;;
37221;SDS011;23119;51.842;-2.230;2023-02-15T00:22:31;19.20;;;7.95;;
37221;SDS011;23119;51.842;-2.230;2023-02-15T00:24:57;26.83;;;13.93;;
37221;SDS011;23119;51.842;-2.230;2023-02-15T00:27:22;21.98;;;12.55;;
37221;SDS011;23119;51.842;-2.230;2023-02-15T00:29:48;26.33;;;14.10;;
37221;SDS011;23119;51.842;-2.230;2023-02-15T00:32:14;30.48;;;14.13;;
37221;SDS011;23119;51.842;-2.230;2023-02-15T00:34:40;26.35;;;12.57;;
37221;SDS011;23119;51.842;-2.230;2023-02-15T00:37:06;20.13;;;10.18;;
37221;SDS011;23119;51.842;-2.230;2023-02-15T00:39:34;27.45;;;12.50;;
37221;SDS011;23119;51.842;-2.230;2023-02-15T00:41:59;29.73;;;14.25;;
37221;SDS011;23119;51.842;-2.230;2023-02-15T00:44:25;23.75;;;12.55;;
37221;SDS011;23119;51.842;-2.230;2023-02-15T00:46:51;25.13;;;13.15;;
37221;SDS011;23119;51.842;-2.230;2023-02-15T00:49:16;27.90;;;14.23;;
37221;SDS011;23119;51.842;-2.230;2023-02-15T00:51:42;27.90;;;14.30;;
37221;SDS011;23119;51.842;-2.230;2023-02-15T00:54:08;26.67;;;12.18;;
37221;SDS011;23119;51.842;-2.230;2023-02-15T00:56:34;26.63;;;13.90;;
37221;SDS011;23119;51.842;-2.230;2023-02-15T00:59:00;26.13;;;12.65;;
37221;SDS011;23119;51.842;-2.230;2023-02-15T01:01:25;25.40;;;12.73;;
37221;SDS011;23119;51.842;-2.230;2023-02-15T01:03:51;30.27;;;14.32;;
37221;SDS011;23119;51.842;-2.230;2023-02-15T01:06:17;20.83;;;12.52;;
37221;SDS011;23119;51.842;-2.230;2023-02-15T01:08:44;25.35;;;13.98;;
37221;SDS011;23119;51.842;-2.230;2023-02-15T01:11:12;24.10;;;12.77;;
37221;SDS011;23119;51.842;-2.230;2023-02-15T01:13:39;27.20;;;12.07;;
37221;SDS011;23119;51.842;-2.230;2023-02-15T01:16:05;27.13;;;13.70;;
37221;SDS011;23119;51.842;-2.230;2023-02-15T01:18:31;28.42;;;13.23;;
37221;SDS011;23119;51.842;-2.230;2023-02-15T01:20:58;21.85;;;12.20;;
37221;SDS011;23119;51.842;-2.230;2023-02-15T01:23:24;28.42;;;13.52;;
37221;SDS011;23119;51.842;-2.230;2023-02-15T01:25:50;26.92;;;14.15;;
37221;SDS011;23119;51.842;-2.230;2023-02-15T01:28:15;23.67;;;11.63;;
37221;SDS011;23119;51.842;-2.230;2023-02-15T01:30:41;26.10;;;12.25;;
37221;SDS011;23119;51.842;-2.230;2023-02-15T01:33:07;26.95;;;13.57;;
37221;SDS011;23119;51.842;-2.230;2023-02-15T01:35:42;26.42;;;13.82;;
37221;SDS011;23119;51.842;-2.230;2023-02-15T01:38:09;27.10;;;13.40;;
37221;SDS011;23119;51.842;-2.230;2023-02-15T01:40:34;32.05;;;15.35;;
37221;SDS011;23119;51.842;-2.230;2023-02-15T01:43:00;31.77;;;15.07;;
37221;SDS011;23119;51.842;-2.230;2023-02-15T01:45:29;28.60;;;14.95;;
37221;SDS011;23119;51.842;-2.230;2023-02-15T01:50:30;31.55;;;15.13;;
37221;SDS011;23119;51.842;-2.230;2023-02-15T01:56:14;31.05;;;16.70;;
37221;SDS011;23119;51.842;-2.230;2023-02-15T01:58:54;28.27;;;14.85;;
37221;SDS011;23119;51.842;-2.230;2023-02-15T02:01:24;33.00;;;16.48;;
37221;SDS011;23119;51.842;-2.230;2023-02-15T02:06:29;29.83;;;15.73;;
37221;SDS011;23119;51.842;-2.230;2023-02-15T02:08:57;32.95;;;15.45;;
37221;SDS011;23119;51.842;-2.230;2023-02-15T02:11:23;33.85;;;16.13;;
37221;SDS011;23119;51.842;-2.230;2023-02-15T02:13:49;36.67;;;16.67;;
37221;SDS011;23119;51.842;-2.230;2023-02-15T02:41:30;32.75;;;17.35;;
37221;SDS011;23119;51.842;-2.230;2023-02-15T02:46:37;36.45;;;18.92;;
37221;SDS011;23119;51.842;-2.230;2023-02-15T02:49:57;35.20;;;18.83;;
37221;SDS011;23119;51.842;-2.230;2023-02-15T03:01:03;36.13;;;17.25;;
37221;SDS011;23119;51.842;-2.230;2023-02-15T03:06:21;40.17;;;21.40;;
37221;SDS011;23119;51.842;-2.230;2023-02-15T03:09:11;40.83;;;21.65;;
37221;SDS011;23119;51.842;-2.230;2023-02-15T03:11:41;36.67;;;19.90;;
37221;SDS011;23119;51.842;-2.230;2023-02-15T03:14:08;40.25;;;18.48;;
37221;SDS011;23119;51.842;-2.230;2023-02-15T03:16:36;38.20;;;20.45;;
37221;SDS011;23119;51.842;-2.230;2023-02-15T03:19:12;43.85;;;22.88;;
37221;SDS011;23119;51.842;-2.230;2023-02-15T03:21:45;41.53;;;20.23;;
37221;SDS011;23119;51.842;-2.230;2023-02-15T03:24:23;40.38;;;19.52;;
37221;SDS011;23119;51.842;-2.230;2023-02-15T03:27:03;41.58;;;21.23;;
37221;SDS011;23119;51.842;-2.230;2023-02-15T03:29:35;41.33;;;22.23;;
37221;SDS011;23119;51.842;-2.230;2023-02-15T03:32:03;40.05;;;18.85;;
37221;SDS011;23119;51.842;-2.230;2023-02-15T03:34:33;43.08;;;20.65;;
37221;SDS011;23119;51.842;-2.230;2023-02-15T03:37:00;43.08;;;22.08;;
37221;SDS011;23119;51.842;-2.230;2023-02-15T03:47:34;42.55;;;21.98;;
37221;SDS011;23119;51.842;-2.230;2023-02-15T03:53:00;46.20;;;21.10;;
37221;SDS011;23119;51.842;-2.230;2023-02-15T03:55:30;44.88;;;22.65;;
37221;SDS011;23119;51.842;-2.230;2023-02-15T03:57:56;45.30;;;21.27;;
37221;SDS011;23119;51.842;-2.230;2023-02-15T04:00:41;41.97;;;21.02;;
37221;SDS011;23119;51.842;-2.230;2023-02-15T04:03:33;49.15;;;24.13;;
37221;SDS011;23119;51.842;-2.230;2023-02-15T04:06:05;44.53;;;21.35;;
37221;SDS011;23119;51.842;-2.230;2023-02-15T04:08:31;39.75;;;21.63;;
37221;SDS011;23119;51.842;-2.230;2023-02-15T04:11:16;43.15;;;21.95;;
37221;SDS011;23119;51.842;-2.230;2023-02-15T04:13:44;41.20;;;21.55;;
37221;SDS011;23119;51.842;-2.230;2023-02-15T04:16:10;42.10;;;20.33;;
37221;SDS011;23119;51.842;-2.230;2023-02-15T04:18:39;45.75;;;21.00;;
37221;SDS011;23119;51.842;-2.230;2023-02-15T04:21:25;44.10;;;22.20;;
37221;SDS011;23119;51.842;-2.230;2023-02-15T04:24:13;43.42;;;22.17;;
37221;SDS011;23119;51.842;-2.230;2023-02-15T04:26:59;44.42;;;21.70;;
37221;SDS011;23119;51.842;-2.230;2023-02-15T04:29:28;41.97;;;21.40;;
37221;SDS011;23119;51.842;-2.230;2023-02-15T04:31:55;38.78;;;18.90;;
37221;SDS011;23119;51.842;-2.230;2023-02-15T04:34:22;44.50;;;22.98;;
37221;SDS011;23119;51.842;-2.230;2023-02-15T04:36:48;43.92;;;21.90;;
37221;SDS011;23119;51.842;-2.230;2023-02-15T04:39:15;48.20;;;23.75;;
37221;SDS011;23119;51.842;-2.230;2023-02-15T04:41:44;39.10;;;21.55;;
37221;SDS011;23119;51.842;-2.230;2023-02-15T04:44:10;43.15;;;19.65;;
37221;SDS011;23119;51.842;-2.230;2023-02-15T04:46:38;41.13;;;20.98;;
37221;SDS011;23119;51.842;-2.230;2023-02-15T04:49:11;42.15;;;21.52;;
37221;SDS011;23119;51.842;-2.230;2023-02-15T04:51:37;38.70;;;19.45;;
37221;SDS011;23119;51.842;-2.230;2023-02-15T04:54:03;42.10;;;22.35;;
37221;SDS011;23119;51.842;-2.230;2023-02-15T04:56:28;42.67;;;20.17;;
37221;SDS011;23119;51.842;-2.230;2023-02-15T04:58:55;39.17;;;19.98;;
37221;SDS011;23119;51.842;-2.230;2023-02-15T05:01:20;36.97;;;18.48;;
37221;SDS011;23119;51.842;-2.230;2023-02-15T05:03:46;41.60;;;22.20;;
37221;SDS011;23119;51.842;-2.230;2023-02-15T05:06:12;45.08;;;24.27;;
37221;SDS011;23119;51.842;-2.230;2023-02-15T05:08:37;45.30;;;23.55;;
37221;SDS011;23119;51.842;-2.230;2023-02-15T05:11:03;43.00;;;22.52;;
37221;SDS011;23119;51.842;-2.230;2023-02-15T05:13:29;44.88;;;21.08;;
37221;SDS011;23119;51.842;-2.230;2023-02-15T05:15:54;40.67;;;20.42;;
37221;SDS011;23119;51.842;-2.230;2023-02-15T05:18:20;44.17;;;21.88;;
37221;SDS011;23119;51.842;-2.230;2023-02-15T05:20:49;43.25;;;20.35;;
37221;SDS011;23119;51.842;-2.230;2023-02-15T05:23:14;44.67;;;21.95;;
37221;SDS011;23119;51.842;-2.230;2023-02-15T05:25:46;45.05;;;22.42;;
37221;SDS011;23119;51.842;-2.230;2023-02-15T05:28:31;43.38;;;21.45;;
37221;SDS011;23119;51.842;-2.230;2023-02-15T05:31:10;49.88;;;23.00;;
37221;SDS011;23119;51.842;-2.230;2023-02-15T05:33:42;36.97;;;18.77;;
37221;SDS011;23119;51.842;-2.230;2023-02-15T05:36:08;49.05;;;23.88;;
37221;SDS011;23119;51.842;-2.230;2023-02-15T05:38:34;47.63;;;23.92;;
37221;SDS011;23119;51.842;-2.230;2023-02-15T05:41:02;53.60;;;23.58;;
37221;SDS011;23119;51.842;-2.230;2023-02-15T05:43:29;46.35;;;23.98;;
37221;SDS011;23119;51.842;-2.230;2023-02-15T05:45:55;44.40;;;24.45;;
37221;SDS011;23119;51.842;-2.230;2023-02-15T05:48:22;51.00;;;23.88;;
37221;SDS011;23119;51.842;-2.230;2023-02-15T05:53:38;47.05;;;22.88;;
37221;SDS011;23119;51.842;-2.230;2023-02-15T05:56:05;51.90;;;25.17;;
37221;SDS011;23119;51.842;-2.230;2023-02-15T05:58:33;49.03;;;24.90;;
37221;SDS011;23119;51.842;-2.230;2023-02-15T06:01:08;47.72;;;25.77;;
37221;SDS011;23119;51.842;-2.230;2023-02-15T06:03:53;48.00;;;24.48;;
37221;SDS011;23119;51.842;-2.230;2023-02-15T06:06:20;52.50;;;25.77;;
37221;SDS011;23119;51.842;-2.230;2023-02-15T06:08:46;50.67;;;24.52;;
37221;SDS011;23119;51.842;-2.230;2023-02-15T06:11:12;48.00;;;25.00;;
37221;SDS011;23119;51.842;-2.230;2023-02-15T06:13:40;46.60;;;24.77;;
37221;SDS011;23119;51.842;-2.230;2023-02-15T06:16:11;49.30;;;24.48;;
37221;SDS011;23119;51.842;-2.230;2023-02-15T06:18:37;44.97;;;23.83;;
37221;SDS011;23119;51.842;-2.230;2023-02-15T06:21:05;51.90;;;25.35;;
37221;SDS011;23119;51.842;-2.230;2023-02-15T06:23:33;53.20;;;26.73;;
37221;SDS011;23119;51.842;-2.230;2023-02-15T06:25:59;46.42;;;24.73;;
37221;SDS011;23119;51.842;-2.230;2023-02-15T06:28:27;51.67;;;25.45;;
37221;SDS011;23119;51.842;-2.230;2023-02-15T06:30:53;53.33;;;26.63;;
37221;SDS011;23119;51.842;-2.230;2023-02-15T06:33:19;55.78;;;25.27;;
37221;SDS011;23119;51.842;-2.230;2023-02-15T06:35:45;51.70;;;24.73;;
37221;SDS011;23119;51.842;-2.230;2023-02-15T06:38:11;50.65;;;24.98;;
37221;SDS011;23119;51.842;-2.230;2023-02-15T06:40:37;36.35;;;17.75;;
37221;SDS011;23119;51.842;-2.230;2023-02-15T06:43:02;53.95;;;26.67;;
37221;SDS011;23119;51.842;-2.230;2023-02-15T06:45:29;50.70;;;26.70;;
37221;SDS011;23119;51.842;-2.230;2023-02-15T06:47:54;53.88;;;25.48;;
37221;SDS011;23119;51.842;-2.230;2023-02-15T06:50:20;44.22;;;20.58;;
37221;SDS011;23119;51.842;-2.230;2023-02-15T06:52:46;53.70;;;25.80;;
37221;SDS011;23119;51.842;-2.230;2023-02-15T06:55:12;43.75;;;21.67;;
37221;SDS011;23119;51.842;-2.230;2023-02-15T06:57:37;52.78;;;26.23;;
37221;SDS011;23119;51.842;-2.230;2023-02-15T07:00:03;58.33;;;28.85;;
37221;SDS011;23119;51.842;-2.230;2023-02-15T07:02:32;51.28;;;26.70;;
37221;SDS011;23119;51.842;-2.230;2023-02-15T07:05:00;55.40;;;25.88;;
37221;SDS011;23119;51.842;-2.230;2023-02-15T07:07:25;51.97;;;24.27;;
37221;SDS011;23119;51.842;-2.230;2023-02-15T07:09:54;56.35;;;25.10;;
37221;SDS011;23119;51.842;-2.230;2023-02-15T07:12:19;40.03;;;19.23;;
37221;SDS011;23119;51.842;-2.230;2023-02-15T07:15:04;45.03;;;22.35;;
37221;SDS011;23119;51.842;-2.230;2023-02-15T07:17:31;51.47;;;25.40;;
37221;SDS011;23119;51.842;-2.230;2023-02-15T07:20:06;53.33;;;27.00;;
37221;SDS011;23119;51.842;-2.230;2023-02-15T07:22:37;51.25;;;23.83;;
37221;SDS011;23119;51.842;-2.230;2023-02-15T07:25:08;51.03;;;23.92;;
37221;SDS011;23119;51.842;-2.230;2023-02-15T07:27:38;51.90;;;26.17;;
37221;SDS011;23119;51.842;-2.230;2023-02-15T07:30:05;62.42;;;27.95;;
37221;SDS011;23119;51.842;-2.230;2023-02-15T07:32:36;52.05;;;26.05;;
37221;SDS011;23119;51.842;-2.230;2023-02-15T07:35:22;54.22;;;26.42;;
37221;SDS011;23119;51.842;-2.230;2023-02-15T07:37:48;36.47;;;15.23;;
37221;SDS011;23119;51.842;-2.230;2023-02-15T07:40:18;53.13;;;25.65;;
37221;SDS011;23119;51.842;-2.230;2023-02-15T07:42:44;51.92;;;24.42;;
37221;SDS011;23119;51.842;-2.230;2023-02-15T07:45:09;47.88;;;22.52;;
37221;SDS011;23119;51.842;-2.230;2023-02-15T07:47:38;44.03;;;22.10;;
37221;SDS011;23119;51.842;-2.230;2023-02-15T07:50:11;39.40;;;17.13;;
37221;SDS011;23119;51.842;-2.230;2023-02-15T07:52:39;50.77;;;24.63;;
37221;SDS011;23119;51.842;-2.230;2023-02-15T07:55:08;55.17;;;26.60;;
37221;SDS011;23119;51.842;-2.230;2023-02-15T07:57:47;48.83;;;23.40;;
37221;SDS011;23119;51.842;-2.230;2023-02-15T08:00:19;52.47;;;26.08;;
37221;SDS011;23119;51.842;-2.230;2023-02-15T08:02:48;53.40;;;25.42;;
37221;SDS011;23119;51.842;-2.230;2023-02-15T08:05:41;52.35;;;24.00;;
37221;SDS011;23119;51.842;-2.230;2023-02-15T08:08:15;40.72;;;19.88;;
37221;SDS011;23119;51.842;-2.230;2023-02-15T08:10:59;46.30;;;24.10;;
37221;SDS011;23119;51.842;-2.230;2023-02-15T08:13:47;45.67;;;24.15;;
37221;SDS011;23119;51.842;-2.230;2023-02-15T08:16:21;50.47;;;24.25;;
37221;SDS011;23119;51.842;-2.230;2023-02-15T08:18:53;43.53;;;21.80;;
37221;SDS011;23119;51.842;-2.230;2023-02-15T08:21:22;48.35;;;22.95;;
37221;SDS011;23119;51.842;-2.230;2023-02-15T08:23:51;51.13;;;25.52;;
37221;SDS011;23119;51.842;-2.230;2023-02-15T08:26:20;44.65;;;22.77;;
37221;SDS011;23119;51.842;-2.230;2023-02-15T08:28:48;40.58;;;21.33;;
37221;SDS011;23119;51.842;-2.230;2023-02-15T08:31:15;53.33;;;25.70;;
37221;SDS011;23119;51.842;-2.230;2023-02-15T08:33:41;44.25;;;22.10;;
37221;SDS011;23119;51.842;-2.230;2023-02-15T08:36:13;46.00;;;23.52;;
37221;SDS011;23119;51.842;-2.230;2023-02-15T08:38:41;41.60;;;23.40;;
37221;SDS011;23119;51.842;-2.230;2023-02-15T08:41:11;38.85;;;17.52;;
37221;SDS011;23119;51.842;-2.230;2023-02-15T08:43:45;38.63;;;22.35;;
37221;SDS011;23119;51.842;-2.230;2023-02-15T08:46:13;36.00;;;20.95;;
37221;SDS011;23119;51.842;-2.230;2023-02-15T08:48:40;38.00;;;22.75;;
37221;SDS011;23119;51.842;-2.230;2023-02-15T08:51:10;33.55;;;23.27;;
37221;SDS011;23119;51.842;-2.230;2023-02-15T08:53:52;33.25;;;20.92;;
37221;SDS011;23119;51.842;-2.230;2023-02-15T08:56:21;37.10;;;21.52;;
37221;SDS011;23119;51.842;-2.230;2023-02-15T08:58:49;38.25;;;22.17;;
37221;SDS011;23119;51.842;-2.230;2023-02-15T09:01:18;29.67;;;18.50;;
37221;SDS011;23119;51.842;-2.230;2023-02-15T09:03:46;31.15;;;20.58;;
37221;SDS011;23119;51.842;-2.230;2023-02-15T09:06:16;34.80;;;20.75;;
37221;SDS011;23119;51.842;-2.230;2023-02-15T09:08:45;32.10;;;21.13;;
37221;SDS011;23119;51.842;-2.230;2023-02-15T09:11:17;31.70;;;17.85;;
37221;SDS011;23119;51.842;-2.230;2023-02-15T09:13:51;29.33;;;17.40;;
37221;SDS011;23119;51.842;-2.230;2023-02-15T09:16:25;32.10;;;17.67;;
37221;SDS011;23119;51.842;-2.230;2023-02-15T09:18:53;32.35;;;19.88;;
37221;SDS011;23119;51.842;-2.230;2023-02-15T09:21:20;31.42;;;19.02;;
37221;SDS011;23119;51.842;-2.230;2023-02-15T09:23:48;29.20;;;18.23;;
37221;SDS011;23119;51.842;-2.230;2023-02-15T09:26:17;31.20;;;19.55;;
37221;SDS011;23119;51.842;-2.230;2023-02-15T09:28:47;27.90;;;18.30;;
37221;SDS011;23119;51.842;-2.230;2023-02-15T09:31:21;28.77;;;17.55;;
37221;SDS011;23119;51.842;-2.230;2023-02-15T09:33:57;27.63;;;17.80;;
37221;SDS011;23119;51.842;-2.230;2023-02-15T09:36:30;32.00;;;18.02;;
37221;SDS011;23119;51.842;-2.230;2023-02-15T09:58:10;24.33;;;15.07;;
37221;SDS011;23119;51.842;-2.230;2023-02-15T10:09:44;27.55;;;13.85;;
37221;SDS011;23119;51.842;-2.230;2023-02-15T10:21:17;25.70;;;17.15;;
37221;SDS011;23119;51.842;-2.230;2023-02-15T10:29:36;23.25;;;15.20;;
37221;SDS011;23119;51.842;-2.230;2023-02-15T10:32:22;28.63;;;16.08;;
37221;SDS011;23119;51.842;-2.230;2023-02-15T11:00:05;20.90;;;12.15;;
37221;SDS011;23119;51.842;-2.230;2023-02-15T11:06:14;22.40;;;11.75;;
37221;SDS011;23119;51.842;-2.230;2023-02-15T11:08:54;24.17;;;11.80;;
37221;SDS011;23119;51.842;-2.230;2023-02-15T11:11:29;21.70;;;12.57;;
37221;SDS011;23119;51.842;-2.230;2023-02-15T11:14:05;24.15;;;11.82;;
37221;SDS011;23119;51.842;-2.230;2023-02-15T11:16:46;19.63;;;9.60;;
37221;SDS011;23119;51.842;-2.230;2023-02-15T11:19:37;32.13;;;11.77;;
37221;SDS011;23119;51.842;-2.230;2023-02-15T11:22:20;19.05;;;11.00;;
37221;SDS011;23119;51.842;-2.230;2023-02-15T11:24:54;24.10;;;11.15;;
37221;SDS011;23119;51.842;-2.230;2023-02-15T11:27:32;16.85;;;9.65;;
37221;SDS011;23119;51.842;-2.230;2023-02-15T11:30:05;19.55;;;10.32;;
37221;SDS011;23119;51.842;-2.230;2023-02-15T11:32:46;20.02;;;9.70;;
37221;SDS011;23119;51.842;-2.230;2023-02-15T11:35:31;19.63;;;9.73;;
37221;SDS011;23119;51.842;-2.230;2023-02-15T11:38:06;24.58;;;9.35;;
37221;SDS011;23119;51.842;-2.230;2023-02-15T11:40:49;18.63;;;8.80;;
37221;SDS011;23119;51.842;-2.230;2023-02-15T11:46:08;14.38;;;5.05;;
37221;SDS011;23119;51.842;-2.230;2023-02-15T11:48:36;17.45;;;5.05;;
37221;SDS011;23119;51.842;-2.230;2023-02-15T11:51:08;13.13;;;4.70;;
37221;SDS011;23119;51.842;-2.230;2023-02-15T11:53:41;8.10;;;4.03;;
37221;SDS011;23119;51.842;-2.230;2023-02-15T11:59:15;13.30;;;4.55;;
37221;SDS011;23119;51.842;-2.230;2023-02-15T12:01:47;16.27;;;5.60;;
37221;SDS011;23119;51.842;-2.230;2023-02-15T12:06:55;12.77;;;4.82;;
37221;SDS011;23119;51.842;-2.230;2023-02-15T12:09:40;15.40;;;4.13;;
37221;SDS011;23119;51.842;-2.230;2023-02-15T12:15:00;12.88;;;3.63;;
37221;SDS011;23119;51.842;-2.230;2023-02-15T12:17:50;11.77;;;4.15;;
37221;SDS011;23119;51.842;-2.230;2023-02-15T12:22:53;12.60;;;4.32;;
37221;SDS011;23119;51.842;-2.230;2023-02-15T12:25:33;12.80;;;3.70;;
37221;SDS011;23119;51.842;-2.230;2023-02-15T12:28:34;9.93;;;4.00;;
37221;SDS011;23119;51.842;-2.230;2023-02-15T12:31:03;8.73;;;3.50;;
37221;SDS011;23119;51.842;-2.230;2023-02-15T12:33:48;16.75;;;3.92;;
37221;SDS011;23119;51.842;-2.230;2023-02-15T12:36:22;18.58;;;4.35;;
37221;SDS011;23119;51.842;-2.230;2023-02-15T12:39:15;18.08;;;4.93;;
37221;SDS011;23119;51.842;-2.230;2023-02-15T12:41:57;13.50;;;4.03;;
37221;SDS011;23119;51.842;-2.230;2023-02-15T12:44:24;10.80;;;3.70;;
37221;SDS011;23119;51.842;-2.230;2023-02-15T12:49:36;11.38;;;3.50;;
37221;SDS011;23119;51.842;-2.230;2023-02-15T12:54:48;14.43;;;4.60;;
37221;SDS011;23119;51.842;-2.230;2023-02-15T12:57:25;14.57;;;4.13;;
37221;SDS011;23119;51.842;-2.230;2023-02-15T12:59:56;10.88;;;3.30;;
37221;SDS011;23119;51.842;-2.230;2023-02-15T13:02:49;16.40;;;3.50;;
37221;SDS011;23119;51.842;-2.230;2023-02-15T13:08:11;13.25;;;3.75;;
37221;SDS011;23119;51.842;-2.230;2023-02-15T13:11:00;12.93;;;3.65;;
37221;SDS011;23119;51.842;-2.230;2023-02-15T13:13:35;15.18;;;4.75;;
37221;SDS011;23119;51.842;-2.230;2023-02-15T13:16:27;12.82;;;3.88;;
37221;SDS011;23119;51.842;-2.230;2023-02-15T13:19:12;10.77;;;3.65;;
37221;SDS011;23119;51.842;-2.230;2023-02-15T13:21:56;12.68;;;3.65;;
37221;SDS011;23119;51.842;-2.230;2023-02-15T13:24:33;15.32;;;3.70;;
37221;SDS011;23119;51.842;-2.230;2023-02-15T13:27:12;13.10;;;3.53;;
37221;SDS011;23119;51.842;-2.230;2023-02-15T13:29:45;13.23;;;3.35;;
37221;SDS011;23119;51.842;-2.230;2023-02-15T13:32:22;12.57;;;3.40;;
37221;SDS011;23119;51.842;-2.230;2023-02-15T13:35:00;15.35;;;3.22;;
37221;SDS011;23119;51.842;-2.230;2023-02-15T13:43:33;27.02;;;4.15;;
37221;SDS011;23119;51.842;-2.230;2023-02-15T13:49:09;11.98;;;3.20;;
37221;SDS011;23119;51.842;-2.230;2023-02-15T13:54:35;17.05;;;3.47;;
37221;SDS011;23119;51.842;-2.230;2023-02-15T13:57:20;11.88;;;3.58;;
37221;SDS011;23119;51.842;-2.230;2023-02-15T14:06:05;11.60;;;3.22;;
37221;SDS011;23119;51.842;-2.230;2023-02-15T14:26:14;15.40;;;4.03;;
37221;SDS011;23119;51.842;-2.230;2023-02-15T14:28:59;12.00;;;3.58;;
37221;SDS011;23119;51.842;-2.230;2023-02-15T14:31:42;9.50;;;3.05;;
37221;SDS011;23119;51.842;-2.230;2023-02-15T14:34:19;14.90;;;3.77;;
37221;SDS011;23119;51.842;-2.230;2023-02-15T14:36:52;16.30;;;3.22;;
37221;SDS011;23119;51.842;-2.230;2023-02-15T14:39:36;13.93;;;4.60;;
37221;SDS011;23119;51.842;-2.230;2023-02-15T14:42:34;8.52;;;2.83;;
37221;SDS011;23119;51.842;-2.230;2023-02-15T14:45:22;13.50;;;3.33;;
37221;SDS011;23119;51.842;-2.230;2023-02-15T14:47:56;17.55;;;4.07;;
37221;SDS011;23119;51.842;-2.230;2023-02-15T14:50:38;14.98;;;3.75;;
37221;SDS011;23119;51.842;-2.230;2023-02-15T15:01:28;16.23;;;4.88;;
37221;SDS011;23119;51.842;-2.230;2023-02-15T15:04:03;18.77;;;4.50;;
37221;SDS011;23119;51.842;-2.230;2023-02-15T15:06:38;17.80;;;4.47;;
37221;SDS011;23119;51.842;-2.230;2023-02-15T15:09:30;8.23;;;4.00;;
37221;SDS011;23119;51.842;-2.230;2023-02-15T15:14:47;11.30;;;3.78;;
37221;SDS011;23119;51.842;-2.230;2023-02-15T15:18:00;18.85;;;5.22;;
37221;SDS011;23119;51.842;-2.230;2023-02-15T15:20:10;26.17;;;7.20;;
37221;SDS011;23119;51.842;-2.230;2023-02-15T15:22:38;14.88;;;5.70;;
37221;SDS011;23119;51.842;-2.230;2023-02-15T15:28:10;17.27;;;5.80;;
37221;SDS011;23119;51.842;-2.230;2023-02-15T15:42:49;12.07;;;4.68;;
37221;SDS011;23119;51.842;-2.230;2023-02-15T15:48:37;16.15;;;4.70;;
37221;SDS011;23119;51.842;-2.230;2023-02-15T15:54:04;7.95;;;3.38;;
37221;SDS011;23119;51.842;-2.230;2023-02-15T15:56:33;12.63;;;3.20;;
37221;SDS011;23119;51.842;-2.230;2023-02-15T15:59:07;11.10;;;3.28;;
37221;SDS011;23119;51.842;-2.230;2023-02-15T16:01:44;12.90;;;3.33;;
37221;SDS011;23119;51.842;-2.230;2023-02-15T16:04:14;9.02;;;2.67;;
37221;SDS011;23119;51.842;-2.230;2023-02-15T16:06:51;8.13;;;3.15;;
37221;SDS011;23119;51.842;-2.230;2023-02-15T16:09:21;8.25;;;3.17;;
37221;SDS011;23119;51.842;-2.230;2023-02-15T16:11:50;11.35;;;3.25;;
37221;SDS011;23119;51.842;-2.230;2023-02-15T16:16:59;11.90;;;3.83;;
37221;SDS011;23119;51.842;-2.230;2023-02-15T16:19:34;8.73;;;3.63;;
37221;SDS011;23119;51.842;-2.230;2023-02-15T16:22:08;13.50;;;4.30;;
37221;SDS011;23119;51.842;-2.230;2023-02-15T16:27:44;8.43;;;3.80;;
37221;SDS011;23119;51.842;-2.230;2023-02-15T16:35:53;11.60;;;6.05;;
37221;SDS011;23119;51.842;-2.230;2023-02-15T16:41:07;9.63;;;5.30;;
37221;SDS011;23119;51.842;-2.230;2023-02-15T16:43:35;14.52;;;7.10;;
37221;SDS011;23119;51.842;-2.230;2023-02-15T16:46:04;13.73;;;6.88;;
37221;SDS011;23119;51.842;-2.230;2023-02-15T16:48:32;12.65;;;6.97;;
37221;SDS011;23119;51.842;-2.230;2023-02-15T16:51:07;16.70;;;8.70;;
37221;SDS011;23119;51.842;-2.230;2023-02-15T16:53:34;14.35;;;6.45;;
37221;SDS011;23119;51.842;-2.230;2023-02-15T16:56:04;14.07;;;7.63;;
37221;SDS011;23119;51.842;-2.230;2023-02-15T16:58:38;15.93;;;7.72;;
37221;SDS011;23119;51.842;-2.230;2023-02-15T17:01:10;16.90;;;8.07;;
37221;SDS011;23119;51.842;-2.230;2023-02-15T17:03:41;13.30;;;6.13;;
37221;SDS011;23119;51.842;-2.230;2023-02-15T17:06:23;16.77;;;8.88;;
37221;SDS011;23119;51.842;-2.230;2023-02-15T17:09:02;27.48;;;14.50;;
37221;SDS011;23119;51.842;-2.230;2023-02-15T17:11:41;15.93;;;9.23;;
37221;SDS011;23119;51.842;-2.230;2023-02-15T17:14:12;13.38;;;6.90;;
37221;SDS011;23119;51.842;-2.230;2023-02-15T17:17:01;15.35;;;7.28;;
37221;SDS011;23119;51.842;-2.230;2023-02-15T17:19:49;13.27;;;7.05;;
37221;SDS011;23119;51.842;-2.230;2023-02-15T17:22:20;11.95;;;6.75;;
37221;SDS011;23119;51.842;-2.230;2023-02-15T17:24:50;13.98;;;7.90;;
37221;SDS011;23119;51.842;-2.230;2023-02-15T17:27:25;17.55;;;8.30;;
37221;SDS011;23119;51.842;-2.230;2023-02-15T17:29:56;16.88;;;7.80;;
37221;SDS011;23119;51.842;-2.230;2023-02-15T17:32:31;16.05;;;8.45;;
37221;SDS011;23119;51.842;-2.230;2023-02-15T17:40:25;18.90;;;11.30;;
37221;SDS011;23119;51.842;-2.230;2023-02-15T17:42:57;17.45;;;9.65;;
37221;SDS011;23119;51.842;-2.230;2023-02-15T17:45:26;16.90;;;10.85;;
37221;SDS011;23119;51.842;-2.230;2023-02-15T17:48:06;21.27;;;11.80;;
37221;SDS011;23119;51.842;-2.230;2023-02-15T17:50:43;23.05;;;14.63;;
37221;SDS011;23119;51.842;-2.230;2023-02-15T17:53:11;21.83;;;12.55;;
37221;SDS011;23119;51.842;-2.230;2023-02-15T17:55:41;21.05;;;11.00;;
37221;SDS011;23119;51.842;-2.230;2023-02-15T17:58:13;20.73;;;11.70;;
37221;SDS011;23119;51.842;-2.230;2023-02-15T18:00:52;20.05;;;11.98;;
37221;SDS011;23119;51.842;-2.230;2023-02-15T18:03:44;18.90;;;11.27;;
37221;SDS011;23119;51.842;-2.230;2023-02-15T18:06:29;17.52;;;10.88;;
37221;SDS011;23119;51.842;-2.230;2023-02-15T18:09:15;17.85;;;10.05;;
37221;SDS011;23119;51.842;-2.230;2023-02-15T18:12:49;20.15;;;10.18;;
37221;SDS011;23119;51.842;-2.230;2023-02-15T18:15:10;21.98;;;10.40;;
37221;SDS011;23119;51.842;-2.230;2023-02-15T18:17:42;16.65;;;10.45;;
37221;SDS011;23119;51.842;-2.230;2023-02-15T18:20:19;17.02;;;9.07;;
37221;SDS011;23119;51.842;-2.230;2023-02-15T18:22:48;21.40;;;9.38;;
37221;SDS011;23119;51.842;-2.230;2023-02-15T18:25:33;19.33;;;10.32;;
37221;SDS011;23119;51.842;-2.230;2023-02-15T18:28:03;17.20;;;9.30;;
37221;SDS011;23119;51.842;-2.230;2023-02-15T18:30:30;11.55;;;7.85;;
37221;SDS011;23119;51.842;-2.230;2023-02-15T18:32:58;15.43;;;9.05;;
37221;SDS011;23119;51.842;-2.230;2023-02-15T18:35:29;20.73;;;8.77;;
37221;SDS011;23119;51.842;-2.230;2023-02-15T18:37:57;15.90;;;8.40;;
37221;SDS011;23119;51.842;-2.230;2023-02-15T18:40:26;17.15;;;8.48;;
37221;SDS011;23119;51.842;-2.230;2023-02-15T18:42:58;15.93;;;6.93;;
37221;SDS011;23119;51.842;-2.230;2023-02-15T18:45:29;19.50;;;9.23;;